Time;durP1;ratioP1;P1;durP2;ratioP2;P2;SDS_P1;SDS_P2;PMS_P1;PMS_P2;Temp;Humidity;BMP_temperature;BMP_pressure;BME280_temperature;BME280_humidity;BME280_pressure;Samples;Min_cycle;Max_cycle;Signal;HPM_P1;HPM_P2
2022/06/09 00:01:43;;;;;;;6.78;2.03;;;13.10;99.90;;;;;;20916107;28;20398;-73
2022/06/09 00:11:48;;;;;;;4.80;2.35;;;13.20;99.90;;;;;;20915751;28;20163;-73
2022/06/09 00:21:49;;;;;;;4.78;2.05;;;13.20;99.90;;;;;;20914961;28;20053;-73
2022/06/09 00:31:50;;;;;;;4.13;1.87;;;13.20;99.90;;;;;;20914552;28;20029;-74
2022/06/09 00:41:51;;;;;;;2.23;1.27;;;13.30;99.90;;;;;;20913044;28;20036;-74
2022/06/09 00:51:57;;;;;;;2.50;1.57;;;13.40;99.90;;;;;;20912108;28;20052;-74
2022/06/09 01:02:00;;;;;;;3.60;1.60;;;13.50;99.90;;;;;;20911427;28;20060;-74
2022/06/09 01:12:01;;;;;;;2.50;1.45;;;13.50;99.90;;;;;;20910550;28;20090;-74
2022/06/09 01:22:12;;;;;;;2.33;1.30;;;13.40;99.90;;;;;;20909833;28;20029;-74
2022/06/09 01:32:23;;;;;;;2.53;1.43;;;13.50;99.90;;;;;;20918091;28;20118;-74
2022/06/09 01:42:31;;;;;;;2.72;1.60;;;13.60;99.90;;;;;;20911634;28;20025;-74
2022/06/09 01:52:34;;;;;;;1.95;1.15;;;13.60;99.90;;;;;;20907768;28;20507;-74
2022/06/09 02:02:41;;;;;;;1.55;0.77;;;13.70;99.90;;;;;;20907524;28;20041;-74
2022/06/09 02:12:42;;;;;;;2.72;1.20;;;13.70;99.90;;;;;;20878532;28;20444;-74
2022/06/09 02:22:43;;;;;;;3.80;1.02;;;13.60;99.90;;;;;;20923899;28;20025;-74
2022/06/09 02:32:44;;;;;;;4.13;1.20;;;13.60;99.90;;;;;;20922919;28;20025;-73
2022/06/09 02:42:45;;;;;;;5.63;1.90;;;13.50;99.90;;;;;;20922169;28;20037;-74
2022/06/09 02:52:46;;;;;;;5.00;1.30;;;13.40;99.90;;;;;;20921136;28;20387;-74
2022/06/09 03:02:58;;;;;;;4.20;1.27;;;13.50;99.90;;;;;;20920548;28;20029;-73
2022/06/09 03:12:59;;;;;;;2.65;1.10;;;13.40;99.90;;;;;;20919740;28;20041;-73
2022/06/09 03:23:00;;;;;;;2.77;1.13;;;13.10;99.90;;;;;;20923390;28;20029;-73
2022/06/09 03:33:01;;;;;;;3.10;1.10;;;13.00;99.90;;;;;;20918880;28;20112;-73
2022/06/09 03:43:02;;;;;;;4.83;1.80;;;13.00;99.90;;;;;;20893689;28;20033;-73
2022/06/09 03:53:03;;;;;;;2.78;1.73;;;13.00;99.90;;;;;;20913027;28;20036;-73
2022/06/09 04:03:04;;;;;;;5.30;1.80;;;13.20;99.90;;;;;;20917315;28;20055;-73
2022/06/09 04:13:05;;;;;;;4.63;2.03;;;13.20;99.90;;;;;;20901765;28;20283;-73
2022/06/09 04:23:06;;;;;;;5.50;1.90;;;13.10;99.90;;;;;;20913098;28;20056;-73
2022/06/09 04:33:06;;;;;;;6.83;1.70;;;13.10;99.90;;;;;;20913493;28;20033;-73
2022/06/09 04:43:10;;;;;;;4.03;1.50;;;13.20;99.90;;;;;;20912735;28;20055;-73
2022/06/09 04:53:11;;;;;;;2.67;1.10;;;13.20;99.90;;;;;;20911912;28;20033;-73
2022/06/09 05:03:11;;;;;;;7.33;1.70;;;13.30;99.90;;;;;;20914399;28;20036;-73
2022/06/09 05:13:15;;;;;;;3.67;1.50;;;13.20;99.90;;;;;;20910437;28;20456;-73
2022/06/09 05:23:18;;;;;;;4.32;1.70;;;13.30;99.90;;;;;;20918016;28;20056;-74
2022/06/09 05:33:20;;;;;;;11.77;1.83;;;13.30;99.90;;;;;;20910450;28;20033;-72
2022/06/09 05:53:41;;;;;;;3.03;1.20;;;13.50;99.90;;;;;;20904968;28;20029;-73
2022/06/09 06:03:42;;;;;;;3.83;1.10;;;13.60;99.90;;;;;;20906469;28;20040;-73
2022/06/09 06:13:44;;;;;;;2.97;1.30;;;13.70;99.90;;;;;;20907644;28;20075;-73
2022/06/09 06:23:45;;;;;;;5.50;2.13;;;13.90;99.90;;;;;;20907254;28;20029;-73
2022/06/09 06:33:46;;;;;;;4.60;1.73;;;14.00;99.90;;;;;;20905478;28;20518;-73
2022/06/09 06:43:48;;;;;;;6.77;2.57;;;14.30;99.90;;;;;;20910272;28;20029;-72
2022/06/09 06:53:49;;;;;;;3.78;1.38;;;14.40;99.90;;;;;;20906760;28;20495;-72
2022/06/09 07:03:50;;;;;;;5.53;1.40;;;14.90;99.90;;;;;;20915912;28;20059;-74
2022/06/09 07:13:51;;;;;;;2.47;0.97;;;15.40;99.90;;;;;;20919734;28;20083;-73
2022/06/09 07:23:51;;;;;;;3.23;1.10;;;15.60;99.90;;;;;;20925062;28;20025;-73
2022/06/09 07:33:52;;;;;;;3.87;1.27;;;15.80;99.90;;;;;;20919107;28;20029;-74
2022/06/09 07:43:53;;;;;;;3.67;1.10;;;15.20;99.90;;;;;;20917602;28;20045;-74
2022/06/09 07:53:54;;;;;;;6.27;1.30;;;16.90;99.90;;;;;;20916678;28;20033;-74
2022/06/09 08:03:56;;;;;;;6.93;1.42;;;17.50;99.90;;;;;;20916348;28;20120;-73
2022/06/09 08:13:58;;;;;;;7.00;2.03;;;17.70;99.90;;;;;;20917458;28;20044;-73
2022/06/09 08:24:00;;;;;;;4.45;1.23;;;18.20;99.90;;;;;;20912556;28;20291;-73
2022/06/09 08:34:00;;;;;;;5.17;1.00;;;18.10;99.90;;;;;;20915397;28;20507;-73
2022/06/09 08:44:10;;;;;;;8.57;0.93;;;17.10;99.90;;;;;;20912675;28;20314;-74
2022/06/09 08:54:17;;;;;;;5.53;0.80;;;18.70;99.90;;;;;;20912154;28;20518;-74
2022/06/09 09:04:27;;;;;;;2.28;0.73;;;19.20;99.90;;;;;;20910727;28;20036;-73
2022/06/09 09:14:39;;;;;;;2.90;0.70;;;18.40;99.90;;;;;;20912703;28;20060;-73
2022/06/09 09:25:00;;;;;;;;;;;18.80;99.90;;;;;;20911388;28;20123;-72
2022/06/09 09:35:01;;;;;;;5.35;1.15;;;19.80;99.90;;;;;;20909184;28;19909;-73
2022/06/09 09:45:10;;;;;;;3.57;0.83;;;19.00;99.90;;;;;;20909864;28;20044;-73
2022/06/09 09:55:57;;;;;;;4.28;0.73;;;18.50;99.90;;;;;;20907745;28;20061;-74
2022/06/09 10:16:21;;;;;;;5.93;0.90;;;18.80;99.90;;;;;;20825236;28;20108;-75
2022/06/09 10:26:28;;;;;;;6.43;1.30;;;20.10;99.90;;;;;;20825856;28;20045;-73
2022/06/09 10:36:52;;;;;;;6.57;1.67;;;20.10;99.90;;;;;;20863839;28;20395;-75
2022/06/09 10:57:43;;;;;;;5.95;0.90;;;20.50;99.90;;;;;;20931959;28;20103;-76
2022/06/09 11:07:54;;;;;;;4.35;1.17;;;20.60;99.90;;;;;;20935036;28;20049;-76
2022/06/09 11:18:22;;;;;;;4.40;0.70;;;20.80;99.90;;;;;;20923095;28;20032;-75
2022/06/09 11:28:30;;;;;;;9.30;1.05;;;20.60;99.90;;;;;;20923353;28;20048;-75
2022/06/09 11:38:43;;;;;;;1.98;0.90;;;20.00;99.90;;;;;;20927158;28;20033;-76
2022/06/09 11:48:50;;;;;;;10.55;1.05;;;19.40;99.90;;;;;;20923991;28;20041;-75
2022/06/09 11:58:51;;;;;;;5.60;0.90;;;19.90;99.90;;;;;;20917693;28;20024;-76
2022/06/09 12:08:55;;;;;;;3.53;0.80;;;18.40;99.90;;;;;;20917295;28;20028;-76
2022/06/09 12:19:16;;;;;;;2.10;0.63;;;17.40;99.90;;;;;;20915782;28;20491;-76
2022/06/09 12:29:36;;;;;;;4.57;0.50;;;17.80;99.90;;;;;;20916810;28;20040;-76
2022/06/09 12:39:40;;;;;;;3.00;0.73;;;17.70;99.90;;;;;;20914208;28;20040;-76
2022/06/09 12:49:43;;;;;;;2.92;0.88;;;17.30;99.90;;;;;;20916613;28;20518;-75
2022/06/09 12:59:44;;;;;;;4.55;1.15;;;18.00;99.90;;;;;;20920480;28;20039;-74
2022/06/09 13:10:04;;;;;;;2.90;0.70;;;19.00;99.90;;;;;;20892839;28;20039;-74
2022/06/09 13:20:13;;;;;;;3.83;1.10;;;19.80;99.90;;;;;;20893576;28;20495;-74
2022/06/09 13:30:19;;;;;;;8.05;1.00;;;19.20;99.90;;;;;;20911127;28;20483;-73
2022/06/09 13:40:21;;;;;;;5.40;1.00;;;18.40;99.90;;;;;;20893839;28;20036;-73
2022/06/09 13:50:22;;;;;;;4.45;0.90;;;19.20;99.90;;;;;;20877987;28;20044;-73
2022/06/09 14:00:37;;;;;;;3.97;0.90;;;18.90;99.90;;;;;;20874763;28;20923;-73
2022/06/09 14:10:39;;;;;;;2.80;0.85;;;16.90;99.90;;;;;;20892165;28;20076;-73
2022/06/09 14:20:40;;;;;;;2.35;0.60;;;16.30;99.90;;;;;;20902635;28;20056;-73
2022/06/09 14:30:41;;;;;;;6.20;0.80;;;17.40;99.90;;;;;;20914502;28;20117;-73
2022/06/09 14:40:46;;;;;;;1.57;0.57;;;17.40;99.90;;;;;;20904905;28;20033;-75
2022/06/09 14:50:46;;;;;;;12.98;2.08;;;18.10;99.90;;;;;;20903508;28;20116;-75
2022/06/09 15:00:48;;;;;;;3.43;0.70;;;18.40;99.90;;;;;;20867213;28;20037;-74
2022/06/09 15:10:52;;;;;;;2.80;0.80;;;17.90;99.90;;;;;;20837219;28;20037;-74
2022/06/09 15:20:53;;;;;;;4.22;0.88;;;18.90;99.90;;;;;;20867816;28;20291;-75
2022/06/09 15:30:55;;;;;;;4.23;1.00;;;19.50;99.90;;;;;;20899656;28;20068;-75
2022/06/09 15:40:56;;;;;;;4.13;1.10;;;19.90;99.90;;;;;;20882738;28;20037;-75
2022/06/09 15:50:57;;;;;;;4.77;0.90;;;19.50;99.90;;;;;;20902411;28;20059;-74
2022/06/09 16:00:58;;;;;;;4.45;1.10;;;20.10;99.90;;;;;;20836696;28;20041;-74
2022/06/09 16:10:59;;;;;;;3.10;0.90;;;18.90;99.90;;;;;;20876334;28;20487;-74
2022/06/09 16:21:00;;;;;;;5.57;1.13;;;18.30;99.90;;;;;;20896272;28;20051;-74
2022/06/09 16:31:01;;;;;;;7.00;1.33;;;17.10;99.90;;;;;;20892191;28;20036;-74
2022/06/09 16:41:02;;;;;;;7.10;1.50;;;16.70;99.90;;;;;;20843755;28;20497;-75
2022/06/09 16:51:03;;;;;;;6.90;1.43;;;17.20;99.90;;;;;;20893006;28;20048;-73
2022/06/09 17:01:04;;;;;;;7.35;1.17;;;16.20;99.90;;;;;;20892677;28;20033;-73
2022/06/09 17:11:08;;;;;;;7.57;1.90;;;17.10;99.90;;;;;;20899468;28;20166;-73
2022/06/09 17:21:14;;;;;;;4.40;1.30;;;17.40;99.90;;;;;;20876627;28;20048;-74
2022/06/09 17:31:15;;;;;;;3.65;1.30;;;17.80;99.90;;;;;;20821109;28;20037;-73
2022/06/09 17:41:18;;;;;;;5.37;1.07;;;17.40;99.90;;;;;;20883086;28;20498;-73
2022/06/09 17:51:19;;;;;;;5.53;1.10;;;17.20;99.90;;;;;;20872193;28;20173;-73
2022/06/09 18:01:21;;;;;;;2.65;1.38;;;16.70;99.90;;;;;;20855882;28;20029;-74
2022/06/09 18:11:23;;;;;;;2.93;0.90;;;16.90;99.90;;;;;;20828237;28;20032;-74
2022/06/09 18:21:27;;;;;;;4.03;1.40;;;16.30;99.90;;;;;;20869095;28;20041;-73
2022/06/09 18:31:28;;;;;;;6.20;1.70;;;17.00;99.90;;;;;;20890610;28;20570;-74
2022/06/09 18:41:29;;;;;;;4.60;1.40;;;16.00;99.90;;;;;;20887181;28;20052;-74
2022/06/09 18:51:30;;;;;;;4.87;1.20;;;15.80;99.90;;;;;;20889358;28;20120;-74
2022/06/09 19:01:31;;;;;;;3.17;1.50;;;14.90;99.90;;;;;;20900864;28;20416;-74
2022/06/09 19:11:32;;;;;;;2.40;1.23;;;14.20;99.90;;;;;;20882554;28;20033;-75
2022/06/09 19:21:34;;;;;;;3.33;1.93;;;14.30;99.90;;;;;;20900064;28;20060;-75
2022/06/09 19:31:36;;;;;;;10.05;2.15;;;13.60;99.90;;;;;;20864598;28;20033;-76
2022/06/09 19:41:36;;;;;;;5.30;1.57;;;13.50;99.90;;;;;;20881166;28;20622;-75
2022/06/09 19:51:39;;;;;;;8.40;1.80;;;13.70;99.90;;;;;;20883619;28;20102;-74
2022/06/09 20:01:39;;;;;;;6.60;2.03;;;13.10;99.90;;;;;;20888864;28;20025;-75
2022/06/09 20:11:43;;;;;;;7.00;1.80;;;12.90;99.90;;;;;;20874287;28;20029;-74
2022/06/09 20:21:44;;;;;;;8.88;2.10;;;12.60;99.90;;;;;;20875773;28;20026;-74
2022/06/09 20:31:45;;;;;;;4.03;2.10;;;12.20;99.90;;;;;;20873120;28;20064;-74
2022/06/09 20:41:46;;;;;;;5.00;1.77;;;12.00;99.90;;;;;;20871876;28;20119;-74
2022/06/09 20:51:47;;;;;;;6.20;2.10;;;12.00;99.90;;;;;;20851847;28;20107;-74
2022/06/09 21:01:48;;;;;;;6.50;2.40;;;11.60;99.90;;;;;;20839810;28;20116;-74
2022/06/09 21:22:09;;;;;;;8.52;2.20;;;11.60;99.90;;;;;;20827038;28;20029;-73
2022/06/09 21:32:11;;;;;;;5.65;2.20;;;11.60;99.90;;;;;;20827683;28;20099;-73
2022/06/09 21:42:13;;;;;;;7.10;1.92;;;11.50;99.90;;;;;;20828332;28;20040;-73
2022/06/09 21:52:15;;;;;;;7.35;1.90;;;11.70;99.90;;;;;;20833972;28;20543;-74
2022/06/09 22:02:15;;;;;;;;;;;11.70;99.90;;;;;;20832988;28;20033;-74
2022/06/09 22:12:16;;;;;;;7.27;2.30;;;11.40;99.90;;;;;;20826127;28;19948;-74
2022/06/09 22:22:17;;;;;;;4.90;2.00;;;11.50;99.90;;;;;;20826480;28;20025;-74
2022/06/09 22:32:18;;;;;;;6.83;1.83;;;11.60;99.90;;;;;;20780157;23;20065;-74
2022/06/09 22:42:18;;;;;;;2.30;1.93;;;11.40;99.90;;;;;;20757958;28;20038;-75
2022/06/09 22:52:23;;;;;;;7.40;2.27;;;10.90;99.90;;;;;;20739505;28;20531;-74
2022/06/09 23:02:24;;;;;;;4.65;2.10;;;10.90;99.90;;;;;;20756516;28;20029;-76
2022/06/09 23:12:24;;;;;;;4.13;1.83;;;10.80;99.90;;;;;;20755851;28;20026;-74
2022/06/09 23:22:26;;;;;;;4.63;1.93;;;11.00;99.90;;;;;;20737126;28;20033;-75
2022/06/09 23:32:27;;;;;;;7.05;2.10;;;10.90;99.90;;;;;;20753835;28;20034;-74
2022/06/09 23:42:28;;;;;;;2.30;1.90;;;10.70;99.90;;;;;;20752547;28;20029;-75
2022/06/09 23:52:28;;;;;;;3.43;2.10;;;10.70;99.90;;;;;;20752627;28;20032;-75
